• Join FlightAware (Why Join?)
  • Login
  • US Flag 
03:47AM EDT


 

Airport Tracker/Info


-or-


 

Live Flight TrackerFlight Track Log ✈ N800WA ✈ 02-May-2012 ✈ KBED - KBHB

Flight Track Log - Related Links

Times and Time Zones

All times are in EDT time to prevent confusion due to time zone crossing. See the N800WA flight status page for this flight to view local times or setup timezone preferences in your user account.

Time Position Orientation Groundspeed Altitude Reporting Facility
EDT Latitude Longitude Course Direction KTS MPH feet Rate Location/Type
07:48PM 42.4667 -71.2500 36° Northeast 195 224 1,000  Level Boston TRACON
07:49PM 42.5167 -71.2000 50° Northeast 239 275 3,100 2,400 Climbing Boston TRACON
07:52PM 42.6169 -71.0350 57° Northeast 278 320 8,800 2,520 Climbing Boston Center
07:53PM 42.6656 -70.9350 58° Northeast 278 320 11,200 2,220 Climbing Boston Center
07:54PM 42.7061 -70.8467 59° Northeast 295 339 13,300 2,040 Climbing Boston Center
07:55PM 42.7564 -70.7322 54° Northeast 307 353 15,300 1,680 Climbing Boston Center
07:56PM 42.8050 -70.6403 46° Northeast 328 377 16,700 840 Climbing Boston Center
07:57PM 42.8844 -70.5275 48° Northeast 349 402 17,000 120 Climbing Boston Center
07:58PM 42.9494 -70.4289 45° Northeast 377 434 17,000  Level Boston Center
07:59PM 43.0350 -70.3125 45° Northeast 387 445 17,000  Level Boston Center
08:00PM 43.1061 -70.2133 43° Northeast 387 445 17,000  Level Boston Center
08:01PM 43.1975 -70.0961 44° Northeast 399 459 17,000  Level Boston Center
08:02PM 43.2767 -69.9903 44° Northeast 394 453 17,000  Level Boston Center
08:03PM 43.3575 -69.8814 44° Northeast 399 459 17,000  Level Boston Center
08:04PM 43.4364 -69.7750 44° Northeast 399 459 17,000  Level Boston Center
08:05PM 43.5172 -69.6656 44° Northeast 394 453 17,000  Level Boston Center
08:06PM 43.5958 -69.5589 44° Northeast 394 453 17,000 -300 Level Boston Center
08:07PM 43.6764 -69.4517 46° Northeast 394 453 16,400 -900 Descending Boston Center
08:08PM 43.7447 -69.3533 45° Northeast 394 453 15,300 -1,200 Descending Boston Center
08:09PM 43.8211 -69.2486 45° Northeast 394 453 14,100 -1,200 Descending Boston Center
08:10PM 43.8953 -69.1439 44° Northeast 394 453 13,000 -1,140 Descending Boston Center
08:11PM 43.9694 -69.0444 43° Northeast 382 440 11,900 -1,020 Descending Boston Center
08:12PM 44.0475 -68.9419 44° Northeast 367 422 11,000 -540 Descending Boston Center
08:13PM 44.1178 -68.8481 41° Northeast 356 410 10,900 -600 Descending Boston Center
08:14PM 44.1881 -68.7628 43° Northeast 347 399 9,900 -1,260 Descending Boston Center
08:15PM 44.2458 -68.6867 44° Northeast 318 366 8,400 -1,620 Descending Boston Center
08:16PM 44.3017 -68.6106 30° Northeast 294 338 6,700 -1,740 Descending Boston Center
08:17PM 44.3647 -68.5600 19° North 271 312 5,000 -1,740 Descending Boston Center
08:18PM 44.4283 -68.5297 19° North 240 276 3,300 -1,020 Descending Boston Center
08:19PM 44.4897 -68.4994 23° Northeast 240 276 3,000 -180 Descending Boston Center
08:20PM 44.5450 -68.4667 20° North 227 261 3,000  Level Boston Center
08:21PM 44.5983 -68.4397 43° Northeast 217 250 3,000  Level Boston Center
08:22PM 44.6361 -68.3903 85° East 183 211 3,000  Level Boston Center
08:23PM 44.6414 -68.3053 149° Southeast 178 205 3,000 -60 Level Boston Center
08:24PM 44.5964 -68.2675 212° Southwest 125 144 2,900 -300 Descending Boston Center
08:25PM 44.5519 -68.3058 212° Southwest 121 139 2,500 -420 Descending Boston Center